Pilot Station, Alaska
Current Conditions -  °F | °C
As of 6:36 PM on Monday 26 Jan 2015 (Local Time) from PASM Reporting Station
Clear Clear  
Wind Chill: -28°   Ceiling: Unl
Heat Index: -8°   Visibility: 10mi
Dew Point: -20°   Wind: 13mph
Humidity: 54%   Direction: 50°NE
Pressure: 29.88"   Gusts: 17mph
Location:  61.94°N, 162.88°W
Report Text: PASM 270336Z AUTO 05011G15KT 10SM CLR M22/M29 A2988 RMK AO1
Loading
Personal Weather Stations






























Interactive Weather Map New forecast layout! Learn more

10-Day Weather Forecast

Advertisements
Track Severe Weather on mobile